KRKS/RKS METAR and TAF weather

Enter ICAO airport designator
Station Type Date Time Source
KRKS METAR 2022/01/29 11:54 UTC NOAA

KRKS 291154Z AUTO 23006KT 10SM CLR M09/M17 A3035 RMK AO2 SLP322 T10891172 11039 21089 56008


Station Type Date Time Source
KRKS Decoded METAR 2022/01/29 11:54 UTC NOAA

ROCK SPRINGS-SWEETWATER CO, WY, United States (KRKS) 41-36N 109-03W
Jan 29, 2022 - 06:54 AM EST / 2022.01.29 1154 UTC
Wind: from the SW (230 degrees) at 7 MPH (6 KT):0
Visibility: 10 mile(s):0
Sky conditions: clear
Temperature: 16.0 F (-8.9 C)
Windchill: 6 F (-14 C):1
Dew Point: 1.0 F (-17.2 C)
Relative Humidity: 50%
Pressure (altimeter): 30.35 in. Hg (1027 hPa)
Pressure tendency: 0.02 inches (0.8 hPa) lower than three hours ago
ob: KRKS 291154Z AUTO 23006KT 10SM CLR M09/M17 A3035 RMK AO2 SLP322 T10891172 11039 21089 56008
cycle: 12

Station Type Date Time Source
KRKS TAF 2022/01/29 12:22 UTC NOAA

TAF KRKS 291120Z 2912/3012 25014KT P6SM FEW200
FM291800 25010KT P6SM SCT250
FM300500 26012G18KT P6SM BKN250

Example: see airport list